Time,TemperatureF,DewpointF,PressureIn,WindDirection,WindDirectionDegrees,WindSpeedMPH,WindSpeedGustMPH,Humidity,HourlyPrecipIn,Conditions,Clouds,dailyrainin,SoftwareType,DateUTC
2013-09-20 00:01:00,69.3,65.6,29.89,SW,223,5.0,6.0,88,0.00,,,0.00,Wunderground v.1.15,2013-09-20 04:01:00,
2013-09-20 00:02:00,69.3,65.6,29.89,SSW,210,5.0,6.0,88,0.00,,,0.00,Wunderground v.1.15,2013-09-20 04:02:00,
2013-09-20 00:04:00,69.3,65.6,29.89,SW,217,5.0,6.0,88,0.00,,,0.00,Wunderground v.1.15,2013-09-20 04:04:00,
2013-09-20 00:05:00,69.3,65.6,29.89,SW,215,5.0,6.0,88,0.00,,,0.00,Wunderground v.1.15,2013-09-20 04:05:00,
2013-09-20 00:08:00,69.2,65.5,29.89,SSW,209,4.0,7.0,88,0.00,,,0.00,Wunderground v.1.15,2013-09-20 04:08:00,
2013-09-20 00:14:00,69.2,65.8,29.89,SW,216,4.0,8.0,89,0.00,,,0.00,Wunderground v.1.15,2013-09-20 04:14:00,
2013-09-20 00:20:00,69.2,65.8,29.89,SSW,200,4.0,10.0,89,0.00,,,0.00,Wunderground v.1.15,2013-09-20 04:20:00,
2013-09-20 00:26:00,69.2,65.8,29.88,West,265,5.0,10.0,89,0.00,,,0.00,Wunderground v.1.15,2013-09-20 04:26:00,
2013-09-20 00:31:00,69.2,65.8,29.88,SSW,196,5.0,11.0,89,0.00,,,0.00,Wunderground v.1.15,2013-09-20 04:31:00,
2013-09-20 00:36:00,69.2,65.8,29.88,SSW,200,5.0,12.0,89,0.00,,,0.00,Wunderground v.1.15,2013-09-20 04:36:00,
2013-09-20 00:42:00,69.1,65.7,29.88,SSW,205,6.0,9.0,89,0.00,,,0.00,Wunderground v.1.15,2013-09-20 04:42:00,
2013-09-20 00:48:00,69.1,65.7,29.88,SW,219,4.0,9.0,89,0.00,,,0.00,Wunderground v.1.15,2013-09-20 04:48:00,
2013-09-20 00:53:00,69.1,65.7,29.88,SW,226,3.0,12.0,89,0.00,,,0.00,Wunderground v.1.15,2013-09-20 04:53:00,
2013-09-20 00:59:00,69.2,65.8,29.88,SSW,206,4.0,4.0,89,0.00,,,0.00,Wunderground v.1.15,2013-09-20 04:59:00,
2013-09-20 01:04:00,69.2,65.8,29.88,SSW,210,4.0,10.0,89,0.00,,,0.00,Wunderground v.1.15,2013-09-20 05:04:00,
2013-09-20 01:10:00,69.2,65.8,29.87,SSW,205,4.0,6.0,89,0.00,,,0.00,Wunderground v.1.15,2013-09-20 05:10:00,
2013-09-20 01:16:00,69.4,65.7,29.87,SSW,196,4.0,13.0,88,0.00,,,0.00,Wunderground v.1.15,2013-09-20 05:16:00,
2013-09-20 01:22:00,69.4,65.7,29.87,SSW,207,5.0,11.0,88,0.00,,,0.00,Wunderground v.1.15,2013-09-20 05:22:00,
2013-09-20 01:27:00,69.5,65.8,29.87,SSW,205,4.0,11.0,88,0.00,,,0.00,Wunderground v.1.15,2013-09-20 05:27:00,
2013-09-20 01:32:00,69.5,65.8,29.87,SW,215,3.0,7.0,88,0.00,,,0.00,Wunderground v.1.15,2013-09-20 05:32:00,
2013-09-20 01:38:00,69.5,65.8,29.87,SSW,196,4.0,11.0,88,0.00,,,0.00,Wunderground v.1.15,2013-09-20 05:38:00,
2013-09-20 01:43:00,69.5,65.8,29.87,SSW,212,4.0,5.0,88,0.00,,,0.00,Wunderground v.1.15,2013-09-20 05:43:00,
2013-09-20 01:49:00,69.5,65.8,29.87,SSW,207,4.0,12.0,88,0.00,,,0.00,Wunderground v.1.15,2013-09-20 05:49:00,
2013-09-20 01:54:00,69.5,65.8,29.87,SSW,213,5.0,12.0,88,0.00,,,0.00,Wunderground v.1.15,2013-09-20 05:54:00,
2013-09-20 02:00:00,69.4,65.7,29.87,WSW,248,4.0,5.0,88,0.00,,,0.00,Wunderground v.1.15,2013-09-20 06:00:00,
2013-09-20 02:05:00,69.3,65.9,29.88,SSW,205,3.0,14.0,89,0.00,,,0.00,Wunderground v.1.15,2013-09-20 06:05:00,
2013-09-20 02:10:00,69.3,65.9,29.87,South,186,4.0,7.0,89,0.00,,,0.00,Wunderground v.1.15,2013-09-20 06:10:00,
2013-09-20 02:15:00,69.3,65.9,29.87,SW,227,6.0,7.0,89,0.00,,,0.00,Wunderground v.1.15,2013-09-20 06:15:00,
2013-09-20 02:21:00,69.3,65.9,29.87,SSW,203,4.0,5.0,89,0.00,,,0.00,Wunderground v.1.15,2013-09-20 06:21:00,
2013-09-20 02:26:00,69.3,66.2,29.86,SW,218,3.0,7.0,90,0.00,,,0.00,Wunderground v.1.15,2013-09-20 06:26:00,
2013-09-20 02:32:00,69.3,66.2,29.86,SSW,205,3.0,9.0,90,0.00,,,0.00,Wunderground v.1.15,2013-09-20 06:32:00,
2013-09-20 02:38:00,69.2,66.1,29.85,SSW,200,3.0,9.0,90,0.00,,,0.00,Wunderground v.1.15,2013-09-20 06:38:00,
2013-09-20 02:43:00,69.2,66.1,29.85,SSW,195,4.0,11.0,90,0.00,,,0.00,Wunderground v.1.15,2013-09-20 06:43:00,
2013-09-20 02:49:00,69.2,66.1,29.85,SW,229,4.0,5.0,90,0.00,,,0.00,Wunderground v.1.15,2013-09-20 06:49:00,
2013-09-20 02:54:00,69.1,66.4,29.85,WSW,249,4.0,6.0,91,0.00,,,0.00,Wunderground v.1.15,2013-09-20 06:54:00,
2013-09-20 02:59:00,69.0,66.3,29.85,SW,216,3.0,4.0,91,0.00,,,0.00,Wunderground v.1.15,2013-09-20 06:59:00,
2013-09-20 03:04:00,69.0,66.3,29.84,SW,215,2.0,6.0,91,0.00,,,0.00,Wunderground v.1.15,2013-09-20 07:04:00,
2013-09-20 03:10:00,69.0,66.3,29.84,SSW,196,2.0,6.0,91,0.00,,,0.00,Wunderground v.1.15,2013-09-20 07:10:00,
2013-09-20 03:15:00,69.0,66.3,29.84,SSW,211,3.0,7.0,91,0.00,,,0.00,Wunderground v.1.15,2013-09-20 07:15:00,
2013-09-20 03:21:00,69.1,66.4,29.84,SSW,213,3.0,5.0,91,0.00,,,0.00,Wunderground v.1.15,2013-09-20 07:21:00,
2013-09-20 03:26:00,69.1,66.7,29.84,SW,215,3.0,9.0,92,0.00,,,0.00,Wunderground v.1.15,2013-09-20 07:26:00,
2013-09-20 03:32:00,69.2,66.8,29.84,SSW,213,2.0,3.0,92,0.00,,,0.00,Wunderground v.1.15,2013-09-20 07:32:00,
2013-09-20 03:38:00,69.3,66.9,29.84,SSW,202,2.0,5.0,92,0.00,,,0.00,Wunderground v.1.15,2013-09-20 07:38:00,
2013-09-20 03:43:00,69.4,67.0,29.84,SSW,199,2.0,9.0,92,0.00,,,0.00,Wunderground v.1.15,2013-09-20 07:43:00,
2013-09-20 03:49:00,69.5,67.1,29.84,SW,217,3.0,3.0,92,0.00,,,0.00,Wunderground v.1.15,2013-09-20 07:49:00,
2013-09-20 03:54:00,69.6,67.2,29.85,SSW,209,3.0,4.0,92,0.00,,,0.00,Wunderground v.1.15,2013-09-20 07:54:00,
2013-09-20 04:00:00,69.8,67.4,29.85,WSW,241,2.0,3.0,92,0.00,,,0.00,Wunderground v.1.15,2013-09-20 08:00:00,
2013-09-20 04:05:00,69.8,67.4,29.85,SSW,207,2.0,6.0,92,0.00,,,0.00,Wunderground v.1.15,2013-09-20 08:05:00,
2013-09-20 04:11:00,69.9,67.5,29.85,SSW,198,4.0,14.0,92,0.00,,,0.00,Wunderground v.1.15,2013-09-20 08:11:00,
2013-09-20 04:16:00,70.0,67.6,29.84,South,190,3.0,14.0,92,0.00,,,0.00,Wunderground v.1.15,2013-09-20 08:16:00,
2013-09-20 04:22:00,70.0,67.3,29.83,SW,215,3.0,4.0,91,0.00,,,0.00,Wunderground v.1.15,2013-09-20 08:22:00,
2013-09-20 04:28:00,70.0,67.3,29.83,SW,224,2.0,6.0,91,0.00,,,0.00,Wunderground v.1.15,2013-09-20 08:28:00,
2013-09-20 04:34:00,69.9,67.2,29.83,West,269,2.0,7.0,91,0.00,,,0.00,Wunderground v.1.15,2013-09-20 08:34:00,
2013-09-20 04:39:00,69.8,67.1,29.83,West,261,1.0,1.0,91,0.00,,,0.00,Wunderground v.1.15,2013-09-20 08:39:00,
2013-09-20 04:44:00,69.7,67.0,29.82,SW,217,1.0,4.0,91,0.00,,,0.00,Wunderground v.1.15,2013-09-20 08:44:00,
2013-09-20 04:50:00,69.6,66.9,29.83,SW,221,1.0,4.0,91,0.00,,,0.00,Wunderground v.1.15,2013-09-20 08:50:00,
2013-09-20 04:55:00,69.4,66.7,29.82,SW,221,1.0,4.0,91,0.00,,,0.00,Wunderground v.1.15,2013-09-20 08:55:00,
2013-09-20 05:00:00,69.3,66.6,29.82,SW,228,1.0,1.0,91,0.00,,,0.00,Wunderground v.1.15,2013-09-20 09:00:00,
2013-09-20 05:06:00,69.3,66.6,29.82,SSW,206,1.0,2.0,91,0.00,,,0.00,Wunderground v.1.15,2013-09-20 09:06:00,
2013-09-20 05:11:00,69.3,66.2,29.82,SSW,206,1.0,1.0,90,0.00,,,0.00,Wunderground v.1.15,2013-09-20 09:11:00,
2013-09-20 05:16:00,69.2,66.1,29.82,SSW,207,0.0,3.0,90,0.00,,,0.00,Wunderground v.1.15,2013-09-20 09:16:00,
2013-09-20 05:22:00,69.2,66.1,29.82,SSW,208,1.0,1.0,90,0.00,,,0.00,Wunderground v.1.15,2013-09-20 09:22:00,
2013-09-20 05:28:00,69.1,66.0,29.82,SSW,207,0.0,1.0,90,0.00,,,0.00,Wunderground v.1.15,2013-09-20 09:28:00,
2013-09-20 05:33:00,69.0,65.9,29.82,SSW,207,0.0,0.0,90,0.00,,,0.00,Wunderground v.1.15,2013-09-20 09:33:00,
2013-09-20 05:39:00,68.8,65.7,29.82,SSW,208,0.0,0.0,90,0.00,,,0.00,Wunderground v.1.15,2013-09-20 09:39:00,
2013-09-20 05:44:00,68.8,65.7,29.82,SSW,209,0.0,0.0,90,0.00,,,0.00,Wunderground v.1.15,2013-09-20 09:44:00,
2013-09-20 05:50:00,68.8,65.7,29.82,SSW,209,1.0,1.0,90,0.00,,,0.00,Wunderground v.1.15,2013-09-20 09:50:00,
2013-09-20 05:55:00,68.8,65.7,29.82,SSW,213,1.0,3.0,90,0.00,,,0.00,Wunderground v.1.15,2013-09-20 09:55:00,
2013-09-20 06:01:00,69.1,66.4,29.82,SW,219,2.0,2.0,91,0.00,,,0.00,Wunderground v.1.15,2013-09-20 10:01:00,
2013-09-20 06:06:00,69.4,66.7,29.82,SW,215,2.0,4.0,91,0.00,,,0.00,Wunderground v.1.15,2013-09-20 10:06:00,
2013-09-20 06:12:00,69.7,67.0,29.82,SW,227,3.0,10.0,91,0.00,,,0.00,Wunderground v.1.15,2013-09-20 10:12:00,
2013-09-20 06:17:00,70.0,67.6,29.82,SSW,211,3.0,10.0,92,0.00,,,0.00,Wunderground v.1.15,2013-09-20 10:17:00,
2013-09-20 06:22:00,70.1,67.7,29.82,SSW,202,3.0,13.0,92,0.00,,,0.00,Wunderground v.1.15,2013-09-20 10:22:00,
2013-09-20 06:28:00,70.2,67.8,29.82,SSW,206,6.0,13.0,92,0.00,,,0.00,Wunderground v.1.15,2013-09-20 10:28:00,
2013-09-20 06:34:00,70.1,67.7,29.81,SW,217,3.0,5.0,92,0.00,,,0.00,Wunderground v.1.15,2013-09-20 10:34:00,
2013-09-20 06:39:00,70.1,67.7,29.81,SW,218,2.0,2.0,92,0.00,,,0.00,Wunderground v.1.15,2013-09-20 10:39:00,
2013-09-20 06:45:00,70.0,67.6,29.81,SSW,209,2.0,11.0,92,0.00,,,0.00,Wunderground v.1.15,2013-09-20 10:45:00,
2013-09-20 06:50:00,70.0,67.6,29.81,SSW,207,3.0,7.0,92,0.00,,,0.00,Wunderground v.1.15,2013-09-20 10:50:00,
2013-09-20 06:56:00,70.0,67.9,29.81,SSW,207,2.0,7.0,93,0.00,,,0.00,Wunderground v.1.15,2013-09-20 10:56:00,
2013-09-20 07:01:00,69.9,67.8,29.81,SSW,202,2.0,8.0,93,0.00,,,0.00,Wunderground v.1.15,2013-09-20 11:01:00,
2013-09-20 07:06:00,70.0,67.9,29.80,SSW,210,3.0,8.0,93,0.00,,,0.00,Wunderground v.1.15,2013-09-20 11:06:00,
2013-09-20 07:12:00,69.9,67.8,29.80,SSW,212,2.0,5.0,93,0.00,,,0.00,Wunderground v.1.15,2013-09-20 11:12:00,
2013-09-20 07:18:00,69.9,67.8,29.80,SW,217,3.0,6.0,93,0.00,,,0.00,Wunderground v.1.15,2013-09-20 11:18:00,
2013-09-20 07:23:00,69.9,67.8,29.80,SSW,211,3.0,5.0,93,0.00,,,0.00,Wunderground v.1.15,2013-09-20 11:23:00,
2013-09-20 07:29:00,69.9,67.8,29.80,SSW,209,2.0,7.0,93,0.00,,,0.00,Wunderground v.1.15,2013-09-20 11:29:00,
2013-09-20 07:34:00,70.0,67.9,29.81,SW,229,4.0,10.0,93,0.00,,,0.00,Wunderground v.1.15,2013-09-20 11:34:00,
2013-09-20 07:40:00,70.1,68.0,29.81,SSW,209,5.0,6.0,93,0.00,,,0.00,Wunderground v.1.15,2013-09-20 11:40:00,
2013-09-20 07:46:00,70.1,68.0,29.80,SSW,208,3.0,6.0,93,0.00,,,0.00,Wunderground v.1.15,2013-09-20 11:46:00,
2013-09-20 07:52:00,70.2,68.1,29.81,SW,217,3.0,9.0,93,0.00,,,0.00,Wunderground v.1.15,2013-09-20 11:52:00,
2013-09-20 07:57:00,70.2,68.1,29.81,SW,218,3.0,9.0,93,0.00,,,0.00,Wunderground v.1.15,2013-09-20 11:57:00,
2013-09-20 08:02:00,70.3,68.2,29.80,SW,218,3.0,6.0,93,0.00,,,0.00,Wunderground v.1.15,2013-09-20 12:02:00,
2013-09-20 08:08:00,70.4,68.3,29.80,SSW,209,4.0,6.0,93,0.00,,,0.00,Wunderground v.1.15,2013-09-20 12:08:00,
2013-09-20 08:14:00,70.6,68.5,29.80,SW,220,3.0,5.0,93,0.00,,,0.00,Wunderground v.1.15,2013-09-20 12:14:00,
2013-09-20 08:20:00,70.8,68.7,29.80,SSW,209,2.0,2.0,93,0.00,,,0.00,Wunderground v.1.15,2013-09-20 12:20:00,
2013-09-20 08:25:00,71.0,68.9,29.80,SW,218,3.0,6.0,93,0.00,,,0.00,Wunderground v.1.15,2013-09-20 12:25:00,
2013-09-20 08:31:00,71.3,69.2,29.80,SSW,202,3.0,6.0,93,0.00,,,0.00,Wunderground v.1.15,2013-09-20 12:31:00,
2013-09-20 08:37:00,71.5,69.4,29.81,WSW,246,2.0,6.0,93,0.00,,,0.00,Wunderground v.1.15,2013-09-20 12:37:00,
2013-09-20 08:42:00,71.6,69.5,29.81,SSW,206,1.0,4.0,93,0.00,,,0.00,Wunderground v.1.15,2013-09-20 12:42:00,
2013-09-20 08:48:00,71.7,69.3,29.81,SSW,206,4.0,12.0,92,0.00,,,0.00,Wunderground v.1.15,2013-09-20 12:48:00,
2013-09-20 08:54:00,71.7,69.3,29.81,SW,214,3.0,5.0,92,0.00,,,0.00,Wunderground v.1.15,2013-09-20 12:54:00,
2013-09-20 09:00:00,71.7,69.3,29.81,South,190,2.0,2.0,92,0.00,,,0.00,Wunderground v.1.15,2013-09-20 13:00:00,
2013-09-20 09:05:00,71.8,69.3,29.82,SW,214,2.0,6.0,92,0.00,,,0.00,Wunderground v.1.15,2013-09-20 13:05:00,
2013-09-20 09:10:00,71.9,69.4,29.81,SW,221,2.0,2.0,92,0.00,,,0.00,Wunderground v.1.15,2013-09-20 13:10:00,
2013-09-20 09:15:00,71.9,69.4,29.81,South,182,2.0,6.0,92,0.00,,,0.00,Wunderground v.1.15,2013-09-20 13:15:00,
2013-09-20 09:21:00,72.1,69.6,29.81,SSW,204,2.0,6.0,92,0.00,,,0.00,Wunderground v.1.15,2013-09-20 13:21:00,
2013-09-20 09:26:00,72.3,69.8,29.81,SW,232,3.0,7.0,92,0.00,,,0.00,Wunderground v.1.15,2013-09-20 13:26:00,
2013-09-20 09:32:00,72.5,70.0,29.81,SW,224,2.0,3.0,92,0.00,,,0.00,Wunderground v.1.15,2013-09-20 13:32:00,
2013-09-20 09:38:00,72.6,69.8,29.82,SW,214,2.0,4.0,91,0.00,,,0.00,Wunderground v.1.15,2013-09-20 13:38:00,
2013-09-20 09:43:00,72.7,69.9,29.82,SW,219,1.0,3.0,91,0.00,,,0.00,Wunderground v.1.15,2013-09-20 13:43:00,
2013-09-20 09:49:00,72.8,70.0,29.81,SW,217,1.0,2.0,91,0.00,,,0.00,Wunderground v.1.15,2013-09-20 13:49:00,
2013-09-20 09:54:00,72.8,70.0,29.81,SSW,213,1.0,4.0,91,0.00,,,0.00,Wunderground v.1.15,2013-09-20 13:54:00,
2013-09-20 09:59:00,72.9,70.1,29.81,SSW,206,1.0,5.0,91,0.00,,,0.00,Wunderground v.1.15,2013-09-20 13:59:00,
2013-09-20 10:05:00,73.0,70.2,29.81,SSW,208,1.0,5.0,91,0.00,,,0.00,Wunderground v.1.15,2013-09-20 14:05:00,
2013-09-20 10:10:00,73.1,70.3,29.81,SW,217,1.0,1.0,91,0.00,,,0.00,Wunderground v.1.15,2013-09-20 14:10:00,
2013-09-20 10:15:00,73.2,70.1,29.81,SW,220,1.0,2.0,90,0.00,,,0.00,Wunderground v.1.15,2013-09-20 14:15:00,
2013-09-20 10:21:00,73.3,70.2,29.81,SW,225,1.0,2.0,90,0.00,,,0.00,Wunderground v.1.15,2013-09-20 14:21:00,
2013-09-20 10:26:00,73.4,70.3,29.81,WSW,246,1.0,2.0,90,0.00,,,0.00,Wunderground v.1.15,2013-09-20 14:26:00,
2013-09-20 10:32:00,73.6,70.5,29.81,SSW,196,1.0,1.0,90,0.00,,,0.00,Wunderground v.1.15,2013-09-20 14:32:00,
2013-09-20 10:38:00,73.7,70.3,29.81,SSW,207,2.0,7.0,89,0.00,,,0.00,Wunderground v.1.15,2013-09-20 14:38:00,
2013-09-20 10:43:00,73.8,70.7,29.81,SW,220,1.0,2.0,90,0.00,,,0.00,Wunderground v.1.15,2013-09-20 14:43:00,
2013-09-20 10:49:00,73.9,70.5,29.81,West,267,0.0,3.0,89,0.00,,,0.00,Wunderground v.1.15,2013-09-20 14:49:00,
2013-09-20 10:54:00,73.8,70.4,29.81,SW,231,1.0,3.0,89,0.00,,,0.00,Wunderground v.1.15,2013-09-20 14:54:00,
2013-09-20 11:00:00,73.7,70.3,29.81,WNW,294,1.0,1.0,89,0.00,,,0.00,Wunderground v.1.15,2013-09-20 15:00:00,
2013-09-20 11:05:00,73.5,70.4,29.81,South,175,1.0,4.0,90,0.00,,,0.00,Wunderground v.1.15,2013-09-20 15:05:00,
2013-09-20 11:11:00,73.4,70.3,29.81,South,180,0.0,0.0,90,0.00,,,0.00,Wunderground v.1.15,2013-09-20 15:11:00,
2013-09-20 11:17:00,73.3,70.5,29.81,South,182,0.0,1.0,91,0.00,,,0.00,Wunderground v.1.15,2013-09-20 15:17:00,
2013-09-20 11:22:00,73.1,70.3,29.80,South,185,0.0,3.0,91,0.00,,,0.00,Wunderground v.1.15,2013-09-20 15:22:00,
2013-09-20 11:28:00,73.1,70.3,29.80,SW,232,1.0,4.0,91,0.00,,,0.00,Wunderground v.1.15,2013-09-20 15:28:00,
2013-09-20 11:33:00,73.2,70.4,29.80,SW,216,1.0,3.0,91,0.00,,,0.00,Wunderground v.1.15,2013-09-20 15:33:00,
2013-09-20 11:39:00,73.4,70.6,29.80,WSW,252,1.0,1.0,91,0.00,,,0.00,Wunderground v.1.15,2013-09-20 15:39:00,
2013-09-20 11:44:00,73.5,70.7,29.79,SSW,199,1.0,4.0,91,0.00,,,0.00,Wunderground v.1.15,2013-09-20 15:44:00,
2013-09-20 11:50:00,73.7,70.6,29.79,SSW,203,1.0,3.0,90,0.00,,,0.00,Wunderground v.1.15,2013-09-20 15:50:00,
2013-09-20 11:55:00,73.7,70.6,29.78,WSW,242,1.0,3.0,90,0.00,,,0.00,Wunderground v.1.15,2013-09-20 15:55:00,
2013-09-20 12:01:00,73.9,70.8,29.78,SW,217,1.0,3.0,90,0.00,,,0.00,Wunderground v.1.15,2013-09-20 16:01:00,
2013-09-20 12:06:00,74.0,70.6,29.78,SSW,211,1.0,3.0,89,0.00,,,0.00,Wunderground v.1.15,2013-09-20 16:06:00,
2013-09-20 12:11:00,74.2,70.7,29.78,SSW,207,1.0,1.0,89,0.00,,,0.00,Wunderground v.1.15,2013-09-20 16:11:00,
2013-09-20 12:16:00,74.3,70.8,29.78,SSW,198,1.0,5.0,89,0.00,,,0.00,Wunderground v.1.15,2013-09-20 16:16:00,
2013-09-20 12:22:00,74.5,71.0,29.78,WSW,249,1.0,5.0,89,0.00,,,0.00,Wunderground v.1.15,2013-09-20 16:22:00,
2013-09-20 12:28:00,74.5,70.7,29.78,SW,217,2.0,5.0,88,0.00,,,0.00,Wunderground v.1.15,2013-09-20 16:28:00,
2013-09-20 12:34:00,74.7,70.9,29.78,SW,221,2.0,2.0,88,0.00,,,0.00,Wunderground v.1.15,2013-09-20 16:34:00,
2013-09-20 12:39:00,74.9,71.1,29.78,SW,221,1.0,3.0,88,0.00,,,0.00,Wunderground v.1.15,2013-09-20 16:39:00,
2013-09-20 12:45:00,75.0,71.2,29.78,SSW,209,1.0,3.0,88,0.00,,,0.00,Wunderground v.1.15,2013-09-20 16:45:00,
2013-09-20 12:50:00,75.2,71.1,29.78,SW,228,1.0,3.0,87,0.00,,,0.00,Wunderground v.1.15,2013-09-20 16:50:00,
2013-09-20 12:55:00,75.4,71.3,29.77,SW,219,1.0,3.0,87,0.00,,,0.00,Wunderground v.1.15,2013-09-20 16:55:00,
2013-09-20 13:01:00,75.7,71.2,29.77,West,281,1.0,1.0,86,0.00,,,0.00,Wunderground v.1.15,2013-09-20 17:01:00,
2013-09-20 13:06:00,76.1,71.3,29.77,NW,305,1.0,5.0,85,0.00,,,0.00,Wunderground v.1.15,2013-09-20 17:06:00,
2013-09-20 13:12:00,76.7,71.5,29.76,WNW,286,3.0,5.0,84,0.00,,,0.00,Wunderground v.1.15,2013-09-20 17:12:00,
2013-09-20 13:18:00,76.6,70.7,29.76,WNW,298,3.0,6.0,82,0.00,,,0.00,Wunderground v.1.15,2013-09-20 17:18:00,
2013-09-20 13:23:00,76.4,70.5,29.76,SW,236,3.0,7.0,82,0.00,,,0.00,Wunderground v.1.15,2013-09-20 17:23:00,
2013-09-20 13:29:00,76.6,70.7,29.76,West,277,2.0,2.0,82,0.00,,,0.00,Wunderground v.1.15,2013-09-20 17:29:00,
2013-09-20 13:34:00,76.8,70.5,29.76,West,273,1.0,3.0,81,0.00,,,0.00,Wunderground v.1.15,2013-09-20 17:34:00,
2013-09-20 13:39:00,76.7,70.4,29.76,WNW,288,2.0,2.0,81,0.00,,,0.00,Wunderground v.1.15,2013-09-20 17:39:00,
2013-09-20 13:44:00,76.4,70.1,29.76,WNW,291,3.0,5.0,81,0.00,,,0.00,Wunderground v.1.15,2013-09-20 17:44:00,
2013-09-20 13:50:00,76.1,70.2,29.76,WNW,293,2.0,3.0,82,0.00,,,0.00,Wunderground v.1.15,2013-09-20 17:50:00,
2013-09-20 13:56:00,76.0,70.5,29.76,WNW,292,1.0,3.0,83,0.00,,,0.00,Wunderground v.1.15,2013-09-20 17:56:00,
2013-09-20 14:02:00,76.2,70.7,29.76,WSW,244,1.0,2.0,83,0.00,,,0.00,Wunderground v.1.15,2013-09-20 18:02:00,
2013-09-20 14:08:00,76.2,70.3,29.76,West,273,1.0,4.0,82,0.00,,,0.00,Wunderground v.1.15,2013-09-20 18:08:00,
2013-09-20 14:13:00,76.0,69.7,29.75,West,281,2.0,6.0,81,0.00,,,0.00,Wunderground v.1.15,2013-09-20 18:13:00,
2013-09-20 14:19:00,75.5,69.3,29.76,West,280,4.0,4.0,81,0.00,,,0.00,Wunderground v.1.15,2013-09-20 18:19:00,
2013-09-20 14:24:00,75.2,69.3,29.76,WNW,303,4.0,6.0,82,0.00,,,0.00,Wunderground v.1.15,2013-09-20 18:24:00,
2013-09-20 14:29:00,75.3,69.4,29.76,WNW,287,3.0,3.0,82,0.00,,,0.00,Wunderground v.1.15,2013-09-20 18:29:00,
2013-09-20 14:34:00,75.5,70.0,29.75,WNW,282,2.0,3.0,83,0.00,,,0.00,Wunderground v.1.15,2013-09-20 18:34:00,
2013-09-20 14:40:00,75.6,69.7,29.75,WNW,293,2.0,3.0,82,0.00,,,0.00,Wunderground v.1.15,2013-09-20 18:40:00,
2013-09-20 14:45:00,75.5,69.6,29.75,WNW,291,2.0,7.0,82,0.00,,,0.00,Wunderground v.1.15,2013-09-20 18:45:00,
2013-09-20 14:51:00,75.0,68.8,29.75,WNW,288,3.0,6.0,81,0.00,,,0.00,Wunderground v.1.15,2013-09-20 18:51:00,
2013-09-20 14:56:00,74.8,68.9,29.75,West,281,4.0,6.0,82,0.00,,,0.00,Wunderground v.1.15,2013-09-20 18:56:00,
2013-09-20 15:01:00,74.5,68.6,29.75,WNW,287,3.0,4.0,82,0.00,,,0.00,Wunderground v.1.15,2013-09-20 19:01:00,
2013-09-20 15:06:00,74.4,68.9,29.75,WNW,286,2.0,4.0,83,0.00,,,0.00,Wunderground v.1.15,2013-09-20 19:06:00,
2013-09-20 15:12:00,74.2,68.7,29.75,WNW,288,1.0,5.0,83,0.00,,,0.00,Wunderground v.1.15,2013-09-20 19:12:00,
2013-09-20 15:18:00,74.1,68.6,29.75,WNW,295,2.0,5.0,83,0.00,,,0.00,Wunderground v.1.15,2013-09-20 19:18:00,
2013-09-20 15:23:00,74.0,68.5,29.75,WNW,295,2.0,3.0,83,0.00,,,0.00,Wunderground v.1.15,2013-09-20 19:23:00,
2013-09-20 15:29:00,73.7,68.6,29.75,WNW,294,1.0,1.0,84,0.00,,,0.01,Wunderground v.1.15,2013-09-20 19:29:00,
2013-09-20 15:35:00,73.3,68.9,29.76,WNW,294,1.0,3.0,86,0.00,,,0.01,Wunderground v.1.15,2013-09-20 19:35:00,
2013-09-20 15:41:00,73.0,68.9,29.75,WNW,294,1.0,1.0,87,0.00,,,0.01,Wunderground v.1.15,2013-09-20 19:41:00,
2013-09-20 15:46:00,72.7,68.6,29.75,WNW,294,0.0,2.0,87,0.00,,,0.01,Wunderground v.1.15,2013-09-20 19:46:00,
2013-09-20 15:52:00,72.4,68.6,29.76,WNW,294,0.0,0.0,88,0.00,,,0.02,Wunderground v.1.15,2013-09-20 19:52:00,
2013-09-20 15:58:00,72.1,68.7,29.76,WNW,293,0.0,4.0,89,0.00,,,0.02,Wunderground v.1.15,2013-09-20 19:58:00,
2013-09-20 16:03:00,71.6,67.9,29.75,WNW,300,1.0,3.0,88,0.00,,,0.02,Wunderground v.1.15,2013-09-20 20:03:00,
2013-09-20 16:09:00,71.3,67.9,29.75,WNW,298,1.0,2.0,89,0.00,,,0.02,Wunderground v.1.15,2013-09-20 20:09:00,
2013-09-20 16:14:00,71.0,67.6,29.75,WSW,256,1.0,2.0,89,0.00,,,0.02,Wunderground v.1.15,2013-09-20 20:14:00,
2013-09-20 16:20:00,70.9,67.5,29.75,WSW,248,1.0,4.0,89,0.00,,,0.02,Wunderground v.1.15,2013-09-20 20:20:00,
2013-09-20 16:25:00,70.8,67.4,29.75,SW,217,1.0,5.0,89,0.00,,,0.03,Wunderground v.1.15,2013-09-20 20:25:00,
2013-09-20 16:31:00,70.6,67.2,29.75,West,269,1.0,3.0,89,0.00,,,0.03,Wunderground v.1.15,2013-09-20 20:31:00,
2013-09-20 16:36:00,70.5,67.1,29.75,West,272,1.0,3.0,89,0.00,,,0.03,Wunderground v.1.15,2013-09-20 20:36:00,
2013-09-20 16:42:00,70.5,67.1,29.75,West,269,0.0,1.0,89,0.00,,,0.03,Wunderground v.1.15,2013-09-20 20:42:00,
2013-09-20 16:48:00,70.4,67.0,29.75,West,267,0.0,1.0,89,0.00,,,0.03,Wunderground v.1.15,2013-09-20 20:48:00,
2013-09-20 16:53:00,70.3,66.9,29.75,WNW,294,0.0,1.0,89,0.00,,,0.03,Wunderground v.1.15,2013-09-20 20:53:00,
2013-09-20 16:58:00,70.1,66.7,29.74,WNW,287,1.0,1.0,89,0.00,,,0.03,Wunderground v.1.15,2013-09-20 20:58:00,
2013-09-20 17:04:00,70.0,66.6,29.74,WNW,287,1.0,4.0,89,0.00,,,0.03,Wunderground v.1.15,2013-09-20 21:04:00,
2013-09-20 17:09:00,69.9,66.8,29.74,WNW,287,0.0,0.0,90,0.00,,,0.03,Wunderground v.1.15,2013-09-20 21:09:00,
2013-09-20 17:14:00,69.9,66.8,29.74,WNW,286,0.0,0.0,90,0.00,,,0.03,Wunderground v.1.15,2013-09-20 21:14:00,
2013-09-20 17:20:00,69.8,66.7,29.74,WNW,286,1.0,1.0,90,0.00,,,0.03,Wunderground v.1.15,2013-09-20 21:20:00,
2013-09-20 17:25:00,69.8,66.7,29.74,WNW,284,0.0,3.0,90,0.00,,,0.03,Wunderground v.1.15,2013-09-20 21:25:00,
2013-09-20 17:31:00,69.9,66.8,29.74,WNW,285,0.0,2.0,90,0.00,,,0.03,Wunderground v.1.15,2013-09-20 21:31:00,
2013-09-20 17:36:00,69.9,66.8,29.74,WNW,284,1.0,2.0,90,0.00,,,0.03,Wunderground v.1.15,2013-09-20 21:36:00,
2013-09-20 17:42:00,69.8,66.7,29.74,WNW,285,0.0,1.0,90,0.00,,,0.03,Wunderground v.1.15,2013-09-20 21:42:00,
2013-09-20 17:47:00,69.8,66.7,29.74,WSW,254,0.0,3.0,90,0.00,,,0.03,Wunderground v.1.15,2013-09-20 21:47:00,
2013-09-20 17:53:00,69.8,66.7,29.74,WSW,254,0.0,0.0,90,0.00,,,0.03,Wunderground v.1.15,2013-09-20 21:53:00,
2013-09-20 17:58:00,69.7,66.6,29.74,WSW,252,0.0,0.0,90,0.00,,,0.03,Wunderground v.1.15,2013-09-20 21:58:00,
2013-09-20 18:04:00,69.6,66.5,29.74,WSW,250,0.0,1.0,90,0.00,,,0.03,Wunderground v.1.15,2013-09-20 22:04:00,
2013-09-20 18:09:00,69.5,66.1,29.74,WSW,238,0.0,0.0,89,0.00,,,0.03,Wunderground v.1.15,2013-09-20 22:09:00,
2013-09-20 18:14:00,69.5,66.1,29.74,SW,227,1.0,1.0,89,0.00,,,0.03,Wunderground v.1.15,2013-09-20 22:14:00,
2013-09-20 18:20:00,69.4,66.3,29.74,SW,229,0.0,1.0,90,0.00,,,0.03,Wunderground v.1.15,2013-09-20 22:20:00,
2013-09-20 18:25:00,69.4,66.3,29.74,SW,227,0.0,1.0,90,0.00,,,0.03,Wunderground v.1.15,2013-09-20 22:25:00,
2013-09-20 18:31:00,69.4,66.3,29.73,SW,227,0.0,0.0,90,0.00,,,0.03,Wunderground v.1.15,2013-09-20 22:31:00,
2013-09-20 18:36:00,69.3,66.2,29.74,SW,227,0.0,0.0,90,0.00,,,0.03,Wunderground v.1.15,2013-09-20 22:36:00,
2013-09-20 18:42:00,69.2,66.1,29.73,SW,230,0.0,0.0,90,0.00,,,0.03,Wunderground v.1.15,2013-09-20 22:42:00,
2013-09-20 18:48:00,69.2,66.5,29.74,SW,230,0.0,0.0,91,0.00,,,0.03,Wunderground v.1.15,2013-09-20 22:48:00,
2013-09-20 18:53:00,69.1,66.4,29.73,SW,230,0.0,0.0,91,0.00,,,0.03,Wunderground v.1.15,2013-09-20 22:53:00,
2013-09-20 18:59:00,69.1,66.4,29.73,SW,231,0.0,0.0,91,0.00,,,0.03,Wunderground v.1.15,2013-09-20 22:59:00,
2013-09-20 19:04:00,69.1,66.4,29.73,SW,231,0.0,0.0,91,0.00,,,0.03,Wunderground v.1.15,2013-09-20 23:04:00,
2013-09-20 19:09:00,69.0,66.3,29.73,SW,230,0.0,0.0,91,0.00,,,0.03,Wunderground v.1.15,2013-09-20 23:09:00,
2013-09-20 19:15:00,69.0,66.3,29.73,SW,231,0.0,1.0,91,0.00,,,0.03,Wunderground v.1.15,2013-09-20 23:15:00,
2013-09-20 19:20:00,68.9,66.2,29.72,SW,231,0.0,0.0,91,0.00,,,0.03,Wunderground v.1.15,2013-09-20 23:20:00,
2013-09-20 19:26:00,68.8,66.1,29.72,SW,230,0.0,0.0,91,0.00,,,0.03,Wunderground v.1.15,2013-09-20 23:26:00,
2013-09-20 19:31:00,68.8,66.1,29.73,SW,231,0.0,0.0,91,0.00,,,0.03,Wunderground v.1.15,2013-09-20 23:31:00,
2013-09-20 19:37:00,68.7,66.3,29.73,WSW,250,0.0,0.0,92,0.00,,,0.03,Wunderground v.1.15,2013-09-20 23:37:00,
2013-09-20 19:43:00,68.6,66.2,29.73,WSW,250,0.0,1.0,92,0.00,,,0.03,Wunderground v.1.15,2013-09-20 23:43:00,
2013-09-20 19:49:00,68.5,66.1,29.73,WSW,250,0.0,0.0,92,0.00,,,0.03,Wunderground v.1.15,2013-09-20 23:49:00,
2013-09-20 19:54:00,68.5,66.1,29.73,WSW,250,0.0,0.0,92,0.00,,,0.03,Wunderground v.1.15,2013-09-20 23:54:00,
2013-09-20 20:00:00,68.5,66.1,29.73,WSW,250,0.0,0.0,92,0.00,,,0.03,Wunderground v.1.15,2013-09-21 00:00:00,
2013-09-20 20:05:00,68.4,66.0,29.73,WSW,250,0.0,0.0,92,0.00,,,0.03,Wunderground v.1.15,2013-09-21 00:05:00,
2013-09-20 20:11:00,68.3,65.9,29.74,WSW,250,0.0,0.0,92,0.00,,,0.03,Wunderground v.1.15,2013-09-21 00:11:00,
2013-09-20 20:16:00,68.3,65.9,29.74,WSW,250,0.0,0.0,92,0.00,,,0.03,Wunderground v.1.15,2013-09-21 00:16:00,
2013-09-20 20:22:00,68.2,65.8,29.73,WSW,250,0.0,3.0,92,0.00,,,0.03,Wunderground v.1.15,2013-09-21 00:22:00,
2013-09-20 20:28:00,68.1,66.0,29.73,WSW,250,0.0,3.0,93,0.00,,,0.03,Wunderground v.1.15,2013-09-21 00:28:00,
2013-09-20 20:33:00,68.1,66.0,29.73,WSW,250,0.0,0.0,93,0.00,,,0.03,Wunderground v.1.15,2013-09-21 00:33:00,
2013-09-20 20:39:00,68.0,65.9,29.73,WSW,250,0.0,0.0,93,0.00,,,0.03,Wunderground v.1.15,2013-09-21 00:39:00,
2013-09-20 20:44:00,68.0,65.9,29.73,WSW,250,0.0,0.0,93,0.00,,,0.03,Wunderground v.1.15,2013-09-21 00:44:00,
2013-09-20 20:49:00,68.0,65.9,29.73,WSW,250,0.0,0.0,93,0.00,,,0.03,Wunderground v.1.15,2013-09-21 00:49:00,
2013-09-20 20:55:00,67.9,65.8,29.73,WSW,250,0.0,0.0,93,0.00,,,0.03,Wunderground v.1.15,2013-09-21 00:55:00,
2013-09-20 21:00:00,67.9,65.8,29.73,WSW,250,0.0,0.0,93,0.00,,,0.03,Wunderground v.1.15,2013-09-21 01:00:00,
2013-09-20 21:07:00,67.9,65.8,29.74,WSW,250,0.0,0.0,93,0.00,,,0.03,Wunderground v.1.15,2013-09-21 01:07:00,
2013-09-20 21:13:00,67.8,65.7,29.74,WSW,250,0.0,0.0,93,0.00,,,0.03,Wunderground v.1.15,2013-09-21 01:13:00,
2013-09-20 21:19:00,67.9,65.8,29.74,WSW,250,0.0,0.0,93,0.00,,,0.03,Wunderground v.1.15,2013-09-21 01:19:00,
2013-09-20 21:24:00,67.9,65.8,29.74,WSW,250,0.0,0.0,93,0.00,,,0.03,Wunderground v.1.15,2013-09-21 01:24:00,
2013-09-20 21:30:00,67.8,65.7,29.74,WSW,250,0.0,0.0,93,0.00,,,0.03,Wunderground v.1.15,2013-09-21 01:30:00,
2013-09-20 21:35:00,67.8,65.7,29.74,WSW,250,0.0,1.0,93,0.00,,,0.04,Wunderground v.1.15,2013-09-21 01:35:00,
2013-09-20 21:41:00,67.7,65.6,29.74,WSW,250,0.0,0.0,93,0.00,,,0.04,Wunderground v.1.15,2013-09-21 01:41:00,
2013-09-20 21:46:00,67.7,65.6,29.74,WSW,248,0.0,0.0,93,0.00,,,0.04,Wunderground v.1.15,2013-09-21 01:46:00,
2013-09-20 21:52:00,67.6,65.5,29.74,WSW,250,0.0,3.0,93,0.00,,,0.04,Wunderground v.1.15,2013-09-21 01:52:00,
2013-09-20 21:58:00,67.6,65.8,29.74,WSW,250,0.0,3.0,94,0.00,,,0.05,Wunderground v.1.15,2013-09-21 01:58:00,
2013-09-20 22:05:00,67.5,65.7,29.74,WSW,250,0.0,0.0,94,0.00,,,0.05,Wunderground v.1.15,2013-09-21 02:05:00,
2013-09-20 22:11:00,67.4,65.6,29.74,WSW,250,0.0,0.0,94,0.00,,,0.05,Wunderground v.1.15,2013-09-21 02:11:00,
2013-09-20 22:16:00,67.2,65.4,29.74,West,266,0.0,2.0,94,0.00,,,0.06,Wunderground v.1.15,2013-09-21 02:16:00,
2013-09-20 22:22:00,67.1,65.3,29.74,West,266,0.0,1.0,94,0.00,,,0.06,Wunderground v.1.15,2013-09-21 02:22:00,
2013-09-20 22:27:00,67.1,65.3,29.74,West,266,0.0,1.0,94,0.00,,,0.06,Wunderground v.1.15,2013-09-21 02:27:00,
2013-09-20 22:32:00,67.0,65.2,29.75,West,266,0.0,3.0,94,0.00,,,0.06,Wunderground v.1.15,2013-09-21 02:32:00,
2013-09-20 22:38:00,66.9,65.1,29.74,West,265,0.0,0.0,94,0.00,,,0.06,Wunderground v.1.15,2013-09-21 02:38:00,
2013-09-20 22:43:00,66.8,65.0,29.74,West,266,0.0,0.0,94,0.00,,,0.06,Wunderground v.1.15,2013-09-21 02:43:00,
2013-09-20 22:49:00,66.7,64.9,29.74,West,266,0.0,0.0,94,0.00,,,0.07,Wunderground v.1.15,2013-09-21 02:49:00,
2013-09-20 22:55:00,66.6,64.8,29.74,West,266,0.0,0.0,94,0.00,,,0.07,Wunderground v.1.15,2013-09-21 02:55:00,
2013-09-20 23:00:00,66.5,64.7,29.73,West,265,0.0,0.0,94,0.00,,,0.07,Wunderground v.1.15,2013-09-21 03:00:00,
2013-09-20 23:05:00,66.4,64.6,29.73,West,266,0.0,0.0,94,0.00,,,0.07,Wunderground v.1.15,2013-09-21 03:05:00,
2013-09-20 23:11:00,66.4,64.6,29.73,West,265,0.0,0.0,94,0.00,,,0.07,Wunderground v.1.15,2013-09-21 03:11:00,
2013-09-20 23:16:00,66.3,64.5,29.73,West,266,0.0,0.0,94,0.00,,,0.08,Wunderground v.1.15,2013-09-21 03:16:00,
2013-09-20 23:22:00,66.2,64.4,29.73,West,265,0.0,0.0,94,0.00,,,0.08,Wunderground v.1.15,2013-09-21 03:22:00,
2013-09-20 23:28:00,66.2,64.4,29.73,West,266,0.0,0.0,94,0.00,,,0.08,Wunderground v.1.15,2013-09-21 03:28:00,
2013-09-20 23:33:00,66.1,64.3,29.73,West,266,0.0,0.0,94,0.00,,,0.08,Wunderground v.1.15,2013-09-21 03:33:00,
2013-09-20 23:39:00,66.1,64.3,29.73,West,266,0.0,0.0,94,0.00,,,0.08,Wunderground v.1.15,2013-09-21 03:39:00,
2013-09-20 23:44:00,66.1,64.3,29.73,West,266,0.0,0.0,94,0.00,,,0.08,Wunderground v.1.15,2013-09-21 03:44:00,
2013-09-20 23:50:00,66.0,64.2,29.73,West,265,0.0,0.0,94,0.00,,,0.08,Wunderground v.1.15,2013-09-21 03:50:00,
2013-09-20 23:55:00,66.0,64.2,29.73,West,266,0.0,0.0,94,0.00,,,0.08,Wunderground v.1.15,2013-09-21 03:55:00,